Time;durP1;ratioP1;P1;durP2;ratioP2;P2;SDS_P1;SDS_P2;PMS_P1;PMS_P2;Temp;Humidity;BMP_temperature;BMP_pressure;BME280_temperature;BME280_humidity;BME280_pressure;Samples;Min_cycle;Max_cycle;Signal;HPM_P1;HPM_P2
2022/08/18 00:02:17;;;;;;;;;;;26.80;87.20;;;;;;5074067;28;20286;-60
2022/08/18 00:04:43;;;;;;;;;;;26.90;86.10;;;;;;5032332;28;19989;-60
2022/08/18 00:07:13;;;;;;;;;;;27.00;87.40;;;;;;5030250;28;19925;-60
2022/08/18 00:09:39;;;;;;;;;;;27.00;86.00;;;;;;5032300;28;19936;-60
2022/08/18 00:12:06;;;;;;;;;;;26.60;86.90;;;;;;5031627;28;20346;-60
2022/08/18 00:14:32;;;;;;;;;;;26.80;87.20;;;;;;5030162;28;19925;-60
2022/08/18 00:16:57;;;;;;;;;;;26.80;87.00;;;;;;5030891;28;19955;-60
2022/08/18 00:19:23;;;;;;;;;;;27.00;87.20;;;;;;5031858;28;19979;-60
2022/08/18 00:21:49;;;;;;;;;;;27.00;87.20;;;;;;5015007;28;20377;-60
2022/08/18 00:24:14;;;;;;;;;;;27.00;87.20;;;;;;5015429;28;19960;-60
2022/08/18 00:26:40;;;;;;;;;;;26.80;87.00;;;;;;5030773;28;20075;-60
2022/08/18 00:29:06;;;;;;;;;;;27.00;87.20;;;;;;5031961;28;19948;-61
2022/08/18 00:31:32;;;;;;;;;;;26.60;86.80;;;;;;5031236;28;19925;-61
2022/08/18 00:33:57;;;;;;;;;;;27.00;87.30;;;;;;5031732;28;20345;-60
2022/08/18 00:36:23;;;;;;;;;;;26.80;86.50;;;;;;5031596;28;19926;-60
2022/08/18 00:38:49;;;;;;;;;;;26.60;86.80;;;;;;5030770;28;19925;-61
2022/08/18 00:41:14;;;;;;;;;;;26.70;86.90;;;;;;5041849;28;19924;-61
2022/08/18 00:43:41;;;;;;;;;;;27.00;87.10;;;;;;5073790;28;19928;-60
2022/08/18 00:46:08;;;;;;;;;;;26.50;86.90;;;;;;5055682;28;20400;-61
2022/08/18 00:48:34;;;;;;;;;;;26.70;87.10;;;;;;5071473;28;19924;-60
2022/08/18 00:51:01;;;;;;;;;;;26.70;86.70;;;;;;5071633;28;19924;-60
2022/08/18 00:53:33;;;;;;;;;;;26.70;87.00;;;;;;5071845;28;19924;-60
2022/08/18 00:55:59;;;;;;;;;;;26.80;87.00;;;;;;5072677;28;20011;-60
2022/08/18 00:58:27;;;;;;;;;;;26.70;86.90;;;;;;5071815;28;19976;-61
2022/08/18 01:00:53;;;;;;;;;;;26.60;86.90;;;;;;5072852;28;20310;-60
2022/08/18 01:03:19;;;;;;;;;;;26.70;86.90;;;;;;5071904;28;19924;-60
2022/08/18 01:05:47;;;;;;;;;;;27.00;86.90;;;;;;5072253;28;20019;-60
2022/08/18 01:08:13;;;;;;;;;;;26.70;86.90;;;;;;5075135;28;19925;-60
2022/08/18 01:10:39;;;;;;;;;;;27.00;87.10;;;;;;5075501;28;19935;-61
2022/08/18 01:13:05;;;;;;;;;;;26.50;86.60;;;;;;5074141;28;19921;-62
2022/08/18 01:15:30;;;;;;;;;;;26.80;86.70;;;;;;5077627;28;19931;-60
2022/08/18 01:23:27;;;;;;;;;;;26.70;86.80;;;;;;5064715;28;20013;-61
2022/08/18 01:25:58;;;;;;;;;;;26.70;86.70;;;;;;5075641;28;19982;-60
2022/08/18 01:28:28;;;;;;;;;;;26.80;85.90;;;;;;5077144;28;19967;-62
2022/08/18 01:30:57;;;;;;;;;;;26.70;85.50;;;;;;5075989;28;19950;-61
2022/08/18 01:33:31;;;;;;;;;;;26.70;86.90;;;;;;5077111;28;19921;-60
2022/08/18 01:35:57;;;;;;;;;;;26.80;87.00;;;;;;5057369;28;19924;-60
2022/08/18 01:38:23;;;;;;;;;;;26.80;86.90;;;;;;5072731;28;19924;-60
2022/08/18 01:40:50;;;;;;;;;;;26.80;86.80;;;;;;5056928;28;19925;-60
2022/08/18 01:43:16;;;;;;;;;;;26.80;86.50;;;;;;5071709;28;19925;-60
2022/08/18 01:45:41;;;;;;;;;;;26.80;86.60;;;;;;5076714;28;19978;-60
2022/08/18 01:48:07;;;;;;;;;;;26.80;86.50;;;;;;5077109;28;20448;-60
2022/08/18 01:50:33;;;;;;;;;;;26.70;86.50;;;;;;5075490;28;19974;-60
2022/08/18 01:53:00;;;;;;;;;;;26.90;86.60;;;;;;5076198;28;20301;-60
2022/08/18 01:55:27;;;;;;;;;;;26.50;86.60;;;;;;5076824;28;19932;-60
2022/08/18 01:57:53;;;;;;;;;;;26.90;87.20;;;;;;5076014;28;19931;-61
2022/08/18 02:00:18;;;;;;;;;;;26.80;86.70;;;;;;5076423;28;19929;-60
2022/08/18 02:02:45;;;;;;;;;;;26.80;86.30;;;;;;5075623;28;19944;-60
2022/08/18 02:05:15;;;;;;;;;;;26.70;86.60;;;;;;5076662;28;20312;-60
2022/08/18 02:07:41;;;;;;;;;;;26.60;85.20;;;;;;5076336;28;19970;-60
2022/08/18 02:10:08;;;;;;;;;;;26.60;86.40;;;;;;5077243;28;19925;-60
2022/08/18 02:12:34;;;;;;;;;;;26.60;86.30;;;;;;5076654;28;20023;-60
2022/08/18 02:14:59;;;;;;;;;;;26.50;86.40;;;;;;5075366;28;20389;-60
2022/08/18 02:17:25;;;;;;;;;;;26.70;86.30;;;;;;5075247;28;19982;-60
2022/08/18 02:19:50;;;;;;;;;;;26.90;86.50;;;;;;5076132;28;19976;-61
2022/08/18 02:22:17;;;;;;;;;;;26.80;86.20;;;;;;5076065;28;19925;-60
2022/08/18 02:24:43;;;;;;;;;;;26.60;86.50;;;;;;5074269;28;20367;-60
2022/08/18 02:27:08;;;;;;;;;;;26.70;86.30;;;;;;5074681;28;19972;-60
2022/08/18 02:29:34;;;;;;;;;;;26.80;86.60;;;;;;5075980;28;20023;-63
2022/08/18 02:32:00;;;;;;;;;;;26.70;86.20;;;;;;5076252;28;19932;-60
2022/08/18 02:34:25;;;;;;;;;;;26.70;86.30;;;;;;5074577;28;19925;-63
2022/08/18 02:36:51;;;;;;;;;;;26.50;86.20;;;;;;5075431;28;19925;-60
2022/08/18 02:39:17;;;;;;;;;;;26.80;86.40;;;;;;5075677;28;19936;-60
2022/08/18 02:41:42;;;;;;;;;;;26.70;86.30;;;;;;5076070;28;19931;-60
2022/08/18 02:44:08;;;;;;;;;;;26.80;86.50;;;;;;5075724;28;20305;-61
2022/08/18 02:46:34;;;;;;;;;;;26.70;86.30;;;;;;5073492;28;19925;-61
2022/08/18 02:48:59;;;;;;;;;;;26.70;86.40;;;;;;5075312;28;19925;-60
2022/08/18 02:51:25;;;;;;;;;;;26.80;86.30;;;;;;5075679;28;19920;-60
2022/08/18 02:53:51;;;;;;;;;;;26.60;86.30;;;;;;5075833;28;20397;-60
2022/08/18 02:56:22;;;;;;;;;;;26.70;86.30;;;;;;5074676;28;19970;-60
2022/08/18 02:58:48;;;;;;;;;;;26.60;86.50;;;;;;5074169;28;19927;-62
2022/08/18 03:01:14;;;;;;;;;;;26.70;86.40;;;;;;5073835;28;20290;-60
2022/08/18 03:03:39;;;;;;;;;;;26.70;86.30;;;;;;5075377;28;19920;-60
2022/08/18 03:06:05;;;;;;;;;;;26.90;86.40;;;;;;5074401;28;19924;-60
2022/08/18 03:08:31;;;;;;;;;;;26.70;86.30;;;;;;5074292;28;19924;-61
2022/08/18 03:10:56;;;;;;;;;;;26.50;86.30;;;;;;5075185;28;20011;-60
2022/08/18 03:13:22;;;;;;;;;;;26.60;86.30;;;;;;5074461;28;19928;-60
2022/08/18 03:15:47;;;;;;;;;;;26.80;86.50;;;;;;5075362;28;20274;-61
2022/08/18 03:18:13;;;;;;;;;;;26.70;86.40;;;;;;5073787;28;20385;-61
2022/08/18 03:20:39;;;;;;;;;;;26.90;86.40;;;;;;5074633;28;19925;-60
2022/08/18 03:23:05;;;;;;;;;;;26.70;86.20;;;;;;5075288;28;19932;-60
2022/08/18 03:25:31;;;;;;;;;;;26.60;86.40;;;;;;5074839;28;20378;-61
2022/08/18 03:27:56;;;;;;;;;;;26.60;86.30;;;;;;5073881;28;19969;-60
2022/08/18 03:30:22;;;;;;;;;;;26.80;86.60;;;;;;5074300;28;19925;-60
2022/08/18 03:32:48;;;;;;;;;;;26.60;86.30;;;;;;5074377;28;20344;-60
2022/08/18 03:35:15;;;;;;;;;;;26.50;86.50;;;;;;5075553;28;19920;-60
2022/08/18 03:37:41;;;;;;;;;;;26.70;86.30;;;;;;5073320;28;19970;-60
2022/08/18 03:40:07;;;;;;;;;;;26.80;86.60;;;;;;5071596;28;20329;-62
2022/08/18 03:42:32;;;;;;;;;;;26.50;86.00;;;;;;5074405;28;20288;-60
2022/08/18 03:44:58;;;;;;;;;;;26.50;86.40;;;;;;5056676;28;20437;-60
2022/08/18 03:47:24;;;;;;;;;;;26.50;86.20;;;;;;5075247;28;19925;-60
2022/08/18 03:49:49;;;;;;;;;;;26.40;86.30;;;;;;5073619;28;19931;-60
2022/08/18 03:52:15;;;;;;;;;;;26.70;86.40;;;;;;5074507;28;19925;-61
2022/08/18 03:54:40;;;;;;;;;;;26.80;86.70;;;;;;5074304;28;20369;-61
2022/08/18 03:57:07;;;;;;;;;;;26.50;86.50;;;;;;5074571;28;20393;-60
2022/08/18 03:59:33;;;;;;;;;;;26.70;86.70;;;;;;5073281;28;20019;-61
2022/08/18 04:02:00;;;;;;;;;;;26.60;86.00;;;;;;5074219;28;19925;-60
2022/08/18 04:04:27;;;;;;;;;;;26.60;86.30;;;;;;5056371;28;19924;-60
2022/08/18 04:06:57;;;;;;;;;;;26.60;86.80;;;;;;5074416;28;19931;-60
2022/08/18 04:09:26;;;;;;;;;;;26.60;85.40;;;;;;5074437;28;19932;-60
2022/08/18 04:11:52;;;;;;;;;;;26.70;86.90;;;;;;5072906;28;20386;-60
2022/08/18 04:14:19;;;;;;;;;;;26.60;86.70;;;;;;5073946;28;19935;-60
2022/08/18 04:16:44;;;;;;;;;;;26.60;86.80;;;;;;5072582;28;19925;-61
2022/08/18 04:19:12;;;;;;;;;;;26.70;86.30;;;;;;5074259;28;19954;-60
2022/08/18 04:21:38;;;;;;;;;;;26.60;86.80;;;;;;5073052;28;19928;-60
2022/08/18 04:24:04;;;;;;;;;;;26.60;86.80;;;;;;5073919;28;19928;-61
2022/08/18 04:26:31;;;;;;;;;;;26.70;86.10;;;;;;5073566;28;19924;-61
2022/08/18 04:28:59;;;;;;;;;;;26.60;86.90;;;;;;5073825;28;19924;-60
2022/08/18 04:31:25;;;;;;;;;;;26.50;86.60;;;;;;5072737;28;19971;-61
2022/08/18 04:33:51;;;;;;;;;;;26.40;86.40;;;;;;5073587;28;19986;-60
2022/08/18 04:36:17;;;;;;;;;;;26.50;86.30;;;;;;5073671;28;19967;-60
2022/08/18 04:38:42;;;;;;;;;;;26.60;86.40;;;;;;5074027;28;20382;-60
2022/08/18 04:41:08;;;;;;;;;;;26.60;86.60;;;;;;5073982;28;20381;-60
2022/08/18 04:43:34;;;;;;;;;;;26.70;87.00;;;;;;5072950;28;20326;-60
2022/08/18 04:46:03;;;;;;;;;;;26.50;86.40;;;;;;5053612;28;19931;-60
2022/08/18 04:48:32;;;;;;;;;;;26.60;86.30;;;;;;5053570;28;19929;-61
2022/08/18 04:51:06;;;;;;;;;;;26.80;87.20;;;;;;5069962;28;19928;-60
2022/08/18 04:53:44;;;;;;;;;;;26.80;85.90;;;;;;5071873;28;19978;-61
2022/08/18 04:56:24;;;;;;;;;;;26.70;86.90;;;;;;5073402;28;19925;-60
2022/08/18 04:58:51;;;;;;;;;;;26.50;85.60;;;;;;5072241;28;19924;-60
2022/08/18 05:01:17;;;;;;;;;;;26.60;87.10;;;;;;5073834;28;19924;-60
2022/08/18 05:03:43;;;;;;;;;;;26.70;87.10;;;;;;5071031;28;19969;-60
2022/08/18 05:06:09;;;;;;;;;;;26.50;86.90;;;;;;5073204;28;20023;-60
2022/08/18 05:08:34;;;;;;;;;;;26.80;86.80;;;;;;5073170;28;19998;-60
2022/08/18 05:11:00;;;;;;;;;;;26.70;87.10;;;;;;5073418;28;19924;-60
2022/08/18 05:13:26;;;;;;;;;;;26.60;86.80;;;;;;5073734;28;19939;-60
2022/08/18 05:15:55;;;;;;;;;;;26.60;87.10;;;;;;5072215;28;20298;-60
2022/08/18 05:18:23;;;;;;;;;;;26.60;87.20;;;;;;5072010;28;19924;-60
2022/08/18 05:20:52;;;;;;;;;;;26.60;87.30;;;;;;5073300;28;19935;-60
2022/08/18 05:23:20;;;;;;;;;;;26.60;85.90;;;;;;5073152;28;19931;-60
2022/08/18 05:25:46;;;;;;;;;;;26.60;87.30;;;;;;5072301;28;20384;-61
2022/08/18 05:28:13;;;;;;;;;;;26.40;86.80;;;;;;5073587;28;19975;-61
2022/08/18 05:30:39;;;;;;;;;;;26.60;87.20;;;;;;5073172;28;19929;-60
2022/08/18 05:33:05;;;;;;;;;;;26.90;87.50;;;;;;5074046;28;20011;-60
2022/08/18 05:35:35;;;;;;;;;;;26.40;87.00;;;;;;5072489;28;19975;-60
2022/08/18 05:38:14;;;;;;;;;;;26.50;87.20;;;;;;5052246;28;19964;-60
2022/08/18 05:40:40;;;;;;;;;;;26.40;85.80;;;;;;5053345;28;20012;-60
2022/08/18 05:43:05;;;;;;;;;;;26.60;87.00;;;;;;5053019;28;19975;-60
2022/08/18 05:45:33;;;;;;;;;;;26.50;87.00;;;;;;5053352;28;19925;-60
2022/08/18 05:48:00;;;;;;;;;;;26.50;87.10;;;;;;5070904;28;19925;-60
2022/08/18 05:50:26;;;;;;;;;;;26.60;86.60;;;;;;5053186;28;19920;-60
2022/08/18 05:53:12;;;;;;;;;;;26.60;87.10;;;;;;5054762;28;19924;-60
2022/08/18 05:58:37;;;;;;;;;;;26.50;85.90;;;;;;5076742;28;19978;-60
2022/08/18 06:01:10;;;;;;;;;;;26.50;87.30;;;;;;5074292;28;20640;-61
2022/08/18 06:03:47;;;;;;;;;;;26.70;87.40;;;;;;5075630;28;19920;-60
2022/08/18 06:06:20;;;;;;;;;;;26.60;87.40;;;;;;5075214;28;19924;-61
2022/08/18 06:08:52;;;;;;;;;;;26.30;85.70;;;;;;5076379;28;19968;-61
2022/08/18 06:11:18;;;;;;;;;;;26.60;86.00;;;;;;5074554;28;19936;-60
2022/08/18 06:13:43;;;;;;;;;;;26.50;87.10;;;;;;5075177;28;19931;-60
2022/08/18 06:16:48;;;;;;;;;;;26.60;87.20;;;;;;5076445;28;19975;-60
2022/08/18 06:19:13;;;;;;;;;;;26.70;86.10;;;;;;5034250;28;20006;-60
2022/08/18 06:21:49;;;;;;;;;;;26.70;87.20;;;;;;5034122;28;20406;-60
2022/08/18 06:24:34;;;;;;;;;;;26.80;86.20;;;;;;5032798;28;19925;-60
2022/08/18 06:27:00;;;;;;;;;;;26.60;86.00;;;;;;5033861;28;19959;-60
2022/08/18 06:29:50;;;;;;;;;;;26.60;87.50;;;;;;5033166;28;20087;-60
2022/08/18 06:32:34;;;;;;;;;;;26.60;86.10;;;;;;5033304;28;19925;-60
2022/08/18 06:35:02;;;;;;;;;;;26.50;86.10;;;;;;5032870;28;20042;-60
2022/08/18 06:38:37;;;;;;;;;;;26.50;87.20;;;;;;5033994;28;20068;-60
2022/08/18 06:40:27;;;;;;;;;;;26.60;86.10;;;;;;5019976;28;20433;-60
2022/08/18 06:42:53;;;;;;;;;;;26.80;87.20;;;;;;5033854;28;19925;-60
2022/08/18 06:45:18;;;;;;;;;;;26.60;87.40;;;;;;5031222;28;20000;-60
2022/08/18 06:47:53;;;;;;;;;;;26.60;87.10;;;;;;5016410;28;19925;-60
2022/08/18 06:50:27;;;;;;;;;;;26.60;87.40;;;;;;5043419;28;20366;-60
2022/08/18 06:52:57;;;;;;;;;;;26.90;86.20;;;;;;5074799;28;20378;-60
2022/08/18 06:55:36;;;;;;;;;;;26.80;86.20;;;;;;5073219;28;20018;-74
2022/08/18 06:58:06;;;;;;;;;;;26.80;86.20;;;;;;5074773;28;20010;-60
2022/08/18 07:00:35;;;;;;;;;;;26.80;86.20;;;;;;5074755;28;19924;-60
2022/08/18 07:03:06;;;;;;;;;;;26.80;87.40;;;;;;5075492;28;19925;-60
2022/08/18 07:05:32;;;;;;;;;;;26.80;86.20;;;;;;5072463;28;19935;-64
2022/08/18 07:08:10;;;;;;;;;;;26.90;88.00;;;;;;5075646;28;19928;-61
2022/08/18 07:10:38;;;;;;;;;;;26.80;86.90;;;;;;5054412;28;19932;-62
2022/08/18 07:13:07;;;;;;;;;;;26.70;88.10;;;;;;5075184;28;19932;-61
2022/08/18 07:15:33;;;;;;;;;;;26.70;86.80;;;;;;5074457;28;19925;-62
2022/08/18 07:18:04;;;;;;;;;;;26.80;88.20;;;;;;5073959;28;20065;-60
2022/08/18 07:20:29;;;;;;;;;;;26.80;87.20;;;;;;5074069;28;19925;-61
2022/08/18 07:22:58;;;;;;;;;;;26.80;88.20;;;;;;5073227;28;19925;-67
2022/08/18 07:25:25;;;;;;;;;;;26.70;88.70;;;;;;5074624;28;20378;-63
2022/08/18 07:27:54;;;;;;;;;;;26.70;88.60;;;;;;5074042;28;19932;-63
2022/08/18 07:30:25;;;;;;;;;;;26.70;88.30;;;;;;5074206;28;19925;-62
2022/08/18 07:33:06;;;;;;;;;;;26.60;87.70;;;;;;5073894;28;19931;-60
2022/08/18 07:35:55;;;;;;;;;;;26.80;87.80;;;;;;5074506;28;20324;-67
2022/08/18 07:38:24;;;;;;;;;;;26.70;87.90;;;;;;5060226;28;19932;-61
2022/08/18 07:40:58;;;;;;;;;;;26.50;87.70;;;;;;5074317;28;20392;-60
2022/08/18 07:43:26;;;;;;;;;;;26.50;87.70;;;;;;5073509;28;19928;-60
2022/08/18 07:45:52;;;;;;;;;;;26.60;89.30;;;;;;5073643;28;19979;-60
2022/08/18 07:48:24;;;;;;;;;;;26.60;89.10;;;;;;5072805;28;20344;-60
2022/08/18 07:50:56;;;;;;;;;;;26.60;88.00;;;;;;5073461;28;19925;-60
2022/08/18 07:53:51;;;;;;;;;;;26.60;88.10;;;;;;5074656;28;19924;-61
2022/08/18 07:56:23;;;;;;;;;;;26.50;88.00;;;;;;5032194;28;19925;-60
2022/08/18 07:58:55;;;;;;;;;;;26.60;88.10;;;;;;5030904;28;19932;-60
2022/08/18 08:01:23;;;;;;;;;;;26.40;88.00;;;;;;5016034;28;19932;-62
2022/08/18 08:04:07;;;;;;;;;;;26.60;88.30;;;;;;5031533;28;19929;-63
2022/08/18 08:06:48;;;;;;;;;;;26.40;88.10;;;;;;5015687;28;19925;-66
2022/08/18 08:09:14;;;;;;;;;;;26.50;88.20;;;;;;5012342;28;19932;-62
2022/08/18 08:11:43;;;;;;;;;;;26.40;88.60;;;;;;5029851;28;20318;-60
2022/08/18 08:14:14;;;;;;;;;;;26.70;89.60;;;;;;5031993;28;19929;-60
2022/08/18 08:16:57;;;;;;;;;;;26.70;89.30;;;;;;5030977;28;19925;-60
2022/08/18 08:19:23;;;;;;;;;;;26.40;88.20;;;;;;5030567;28;20040;-63
2022/08/18 08:21:55;;;;;;;;;;;26.50;89.30;;;;;;5028347;28;20322;-62
2022/08/18 08:24:36;;;;;;;;;;;26.60;89.80;;;;;;4995841;28;19925;-61
2022/08/18 08:27:05;;;;;;;;;;;26.50;88.30;;;;;;4996001;28;19926;-61
2022/08/18 08:29:37;;;;;;;;;;;26.40;89.80;;;;;;5004547;28;19925;-68
2022/08/18 08:32:02;;;;;;;;;;;26.50;89.90;;;;;;5019454;28;20019;-62
2022/08/18 08:34:43;;;;;;;;;;;26.40;89.50;;;;;;5068984;28;19964;-61
2022/08/18 08:37:13;;;;;;;;;;;26.30;88.40;;;;;;5074073;28;19931;-60
2022/08/18 08:39:52;;;;;;;;;;;26.60;89.90;;;;;;5072441;28;20285;-60
2022/08/18 08:42:20;;;;;;;;;;;26.60;88.70;;;;;;5070739;28;20376;-61
2022/08/18 08:44:52;;;;;;;;;;;26.50;89.60;;;;;;5057181;28;19932;-61
2022/08/18 08:47:19;;;;;;;;;;;26.80;89.30;;;;;;5072041;28;19924;-62
2022/08/18 08:49:49;;;;;;;;;;;26.40;88.80;;;;;;5073425;28;19932;-61
2022/08/18 08:52:20;;;;;;;;;;;26.50;88.30;;;;;;5072017;28;20023;-61
2022/08/18 08:54:49;;;;;;;;;;;26.70;88.10;;;;;;5073803;28;19929;-60
2022/08/18 08:57:15;;;;;;;;;;;26.40;89.30;;;;;;5073564;28;19932;-60
2022/08/18 08:59:42;;;;;;;;;;;26.50;89.10;;;;;;5073573;28;19955;-60
2022/08/18 09:02:26;;;;;;;;;;;26.80;89.70;;;;;;5073227;28;19935;-61
2022/08/18 09:04:58;;;;;;;;;;;26.80;88.40;;;;;;5072385;28;19924;-61
2022/08/18 09:07:36;;;;;;;;;;;26.50;88.00;;;;;;5073408;28;19930;-60
2022/08/18 09:10:11;;;;;;;;;;;26.50;88.30;;;;;;5073790;28;19925;-61
2022/08/18 09:12:55;;;;;;;;;;;26.30;88.20;;;;;;5073176;28;19927;-60
2022/08/18 09:15:24;;;;;;;;;;;26.50;88.30;;;;;;5073240;28;20039;-61
2022/08/18 09:18:08;;;;;;;;;;;26.70;88.60;;;;;;5073029;28;19955;-61
2022/08/18 09:20:54;;;;;;;;;;;26.40;88.50;;;;;;5073370;28;20437;-61
2022/08/18 09:23:21;;;;;;;;;;;26.50;88.60;;;;;;5067601;28;19971;-61
2022/08/18 09:25:48;;;;;;;;;;;26.40;90.00;;;;;;5072826;28;20015;-64
2022/08/18 09:28:22;;;;;;;;;;;26.10;89.60;;;;;;5075950;28;19931;-61
2022/08/18 09:31:06;;;;;;;;;;;26.30;88.80;;;;;;5077147;28;20409;-60
2022/08/18 09:33:39;;;;;;;;;;;26.40;88.90;;;;;;5075605;28;19928;-69
2022/08/18 09:36:23;;;;;;;;;;;26.60;89.00;;;;;;5073759;28;19967;-65
2022/08/18 09:41:59;;;;;;;;;;;26.50;89.10;;;;;;5076272;28;19932;-60
2022/08/18 09:44:43;;;;;;;;;;;26.50;89.20;;;;;;5073103;28;19924;-60
2022/08/18 09:47:09;;;;;;;;;;;26.20;88.90;;;;;;5077641;28;20019;-61
2022/08/18 09:49:54;;;;;;;;;;;26.40;90.10;;;;;;5074586;28;19964;-60
2022/08/18 09:52:20;;;;;;;;;;;26.50;89.10;;;;;;5075882;28;19925;-60
2022/08/18 09:54:51;;;;;;;;;;;26.60;90.00;;;;;;5072534;28;20336;-60
2022/08/18 09:57:22;;;;;;;;;;;26.30;88.80;;;;;;5075611;28;20143;-60
2022/08/18 09:59:48;;;;;;;;;;;26.50;89.10;;;;;;5076613;28;19928;-60
2022/08/18 10:02:34;;;;;;;;;;;26.50;90.00;;;;;;5076864;28;19931;-61
2022/08/18 10:05:19;;;;;;;;;;;26.60;89.10;;;;;;5066012;28;20337;-61
2022/08/18 10:07:45;;;;;;;;;;;26.60;88.70;;;;;;5074167;28;20290;-60
2022/08/18 10:10:11;;;;;;;;;;;26.70;90.00;;;;;;5077042;28;19931;-60
2022/08/18 10:12:42;;;;;;;;;;;26.70;89.80;;;;;;5076419;28;19924;-61
2022/08/18 10:15:08;;;;;;;;;;;26.40;88.50;;;;;;5075459;28;20378;-60
2022/08/18 10:17:38;;;;;;;;;;;26.60;89.70;;;;;;5073550;28;19977;-61
2022/08/18 10:20:04;;;;;;;;;;;26.60;89.90;;;;;;5075541;28;19931;-61
2022/08/18 10:22:48;;;;;;;;;;;26.60;89.50;;;;;;5076163;28;20356;-60
2022/08/18 10:25:13;;;;;;;;;;;26.60;88.40;;;;;;5075203;28;19925;-61
2022/08/18 10:27:45;;;;;;;;;;;26.80;89.50;;;;;;5073697;28;19932;-61
2022/08/18 10:30:29;;;;;;;;;;;26.60;88.20;;;;;;5075876;28;19924;-60
2022/08/18 10:32:56;;;;;;;;;;;26.70;88.20;;;;;;5076882;28;20305;-60
2022/08/18 10:35:34;;;;;;;;;;;26.50;89.70;;;;;;5076110;28;19924;-61
2022/08/18 10:38:11;;;;;;;;;;;26.60;88.40;;;;;;5071701;28;19932;-63
2022/08/18 10:40:37;;;;;;;;;;;26.60;89.80;;;;;;5072585;28;20447;-69
2022/08/18 10:43:06;;;;;;;;;;;26.60;89.50;;;;;;5074125;28;20019;-60
2022/08/18 10:45:44;;;;;;;;;;;26.70;88.30;;;;;;5076349;28;20259;-60
2022/08/18 10:48:22;;;;;;;;;;;26.80;88.30;;;;;;5058071;28;19924;-61
2022/08/18 10:51:07;;;;;;;;;;;26.80;88.20;;;;;;5076034;28;19978;-60
2022/08/18 10:53:41;;;;;;;;;;;26.60;88.10;;;;;;5073735;28;20329;-60
2022/08/18 10:56:17;;;;;;;;;;;26.60;88.10;;;;;;5072362;28;19928;-60
2022/08/18 10:58:49;;;;;;;;;;;26.70;88.10;;;;;;5072536;28;19932;-60
2022/08/18 11:01:18;;;;;;;;;;;26.80;88.00;;;;;;5038170;28;20054;-60
2022/08/18 11:03:46;;;;;;;;;;;26.80;88.00;;;;;;5059968;28;19943;-61
2022/08/18 11:06:17;;;;;;;;;;;27.00;88.00;;;;;;5075569;28;19931;-60
2022/08/18 11:08:48;;;;;;;;;;;27.00;87.90;;;;;;5074102;28;20066;-60
2022/08/18 11:11:22;;;;;;;;;;;27.00;88.00;;;;;;5073963;28;19924;-61
2022/08/18 11:13:55;;;;;;;;;;;26.90;88.00;;;;;;5074998;28;19931;-60
2022/08/18 11:16:26;;;;;;;;;;;27.10;88.00;;;;;;5072585;28;20338;-61
2022/08/18 11:18:58;;;;;;;;;;;27.00;88.00;;;;;;5057411;28;19947;-61
2022/08/18 11:21:35;;;;;;;;;;;26.90;87.90;;;;;;5074641;28;20386;-62
2022/08/18 11:24:06;;;;;;;;;;;27.10;88.10;;;;;;5073266;28;19993;-61
2022/08/18 11:26:34;;;;;;;;;;;27.10;88.00;;;;;;5070933;28;19925;-61
2022/08/18 11:29:00;;;;;;;;;;;27.00;89.30;;;;;;5073928;28;19931;-62
2022/08/18 11:31:26;;;;;;;;;;;27.20;89.30;;;;;;5074100;28;19924;-60
2022/08/18 11:33:52;;;;;;;;;;;27.10;89.00;;;;;;5072064;28;20020;-60
2022/08/18 11:36:17;;;;;;;;;;;27.10;88.80;;;;;;5055989;28;19928;-64
2022/08/18 11:39:03;;;;;;;;;;;27.20;88.80;;;;;;5073339;28;19931;-63
2022/08/18 11:41:29;;;;;;;;;;;27.30;89.00;;;;;;5071697;28;19931;-63
2022/08/18 11:44:03;;;;;;;;;;;27.30;88.70;;;;;;5070851;28;19928;-68
2022/08/18 11:46:30;;;;;;;;;;;27.50;87.70;;;;;;5071336;28;20377;-62
2022/08/18 11:48:55;;;;;;;;;;;27.30;88.70;;;;;;5074139;28;19924;-63
2022/08/18 11:51:23;;;;;;;;;;;27.20;88.20;;;;;;5073142;28;20401;-66
2022/08/18 11:53:56;;;;;;;;;;;27.50;88.70;;;;;;5069165;28;19924;-61
2022/08/18 11:56:34;;;;;;;;;;;27.50;87.30;;;;;;5069914;28;19963;-63
2022/08/18 11:59:01;;;;;;;;;;;27.20;87.00;;;;;;5074220;28;19970;-61
2022/08/18 12:01:32;;;;;;;;;;;27.20;88.90;;;;;;5055021;28;19931;-62
2022/08/18 12:03:58;;;;;;;;;;;27.30;87.00;;;;;;5074548;28;20355;-60
2022/08/18 12:06:25;;;;;;;;;;;27.40;87.90;;;;;;5073224;28;19976;-61
2022/08/18 12:08:53;;;;;;;;;;;27.50;88.20;;;;;;5068046;28;19931;-63
2022/08/18 12:11:19;;;;;;;;;;;27.60;88.50;;;;;;5074264;28;19990;-63
2022/08/18 12:13:46;;;;;;;;;;;27.70;88.50;;;;;;5072881;28;19925;-64
2022/08/18 12:16:13;;;;;;;;;;;27.40;88.30;;;;;;5072928;28;19977;-63
2022/08/18 12:18:39;;;;;;;;;;;27.50;88.30;;;;;;5071712;28;19924;-60
2022/08/18 12:21:04;;;;;;;;;;;27.60;87.80;;;;;;5074017;28;19978;-62
2022/08/18 12:23:31;;;;;;;;;;;27.80;88.20;;;;;;5072450;28;19932;-61
2022/08/18 12:25:57;;;;;;;;;;;27.80;88.50;;;;;;5073760;28;20470;-61
2022/08/18 12:28:22;;;;;;;;;;;27.60;88.00;;;;;;5054392;28;20015;-61
2022/08/18 12:30:49;;;;;;;;;;;27.50;87.70;;;;;;5072529;28;19932;-61
2022/08/18 12:33:15;;;;;;;;;;;27.20;87.80;;;;;;5074173;28;19924;-60
2022/08/18 12:35:40;;;;;;;;;;;27.60;87.70;;;;;;5073476;28;20054;-60
2022/08/18 12:38:06;;;;;;;;;;;27.40;88.00;;;;;;5074099;28;20015;-60
2022/08/18 12:40:32;;;;;;;;;;;27.60;88.60;;;;;;5070627;28;20023;-61
2022/08/18 12:42:58;;;;;;;;;;;27.30;87.30;;;;;;5073689;28;20442;-61
2022/08/18 12:45:25;;;;;;;;;;;27.40;87.60;;;;;;5073020;28;19943;-62
2022/08/18 12:47:50;;;;;;;;;;;27.40;88.20;;;;;;5073528;28;19924;-61
2022/08/18 12:50:16;;;;;;;;;;;27.30;87.70;;;;;;5069147;28;19933;-63
2022/08/18 12:52:42;;;;;;;;;;;27.10;87.10;;;;;;5073963;28;20011;-61
2022/08/18 12:55:08;;;;;;;;;;;27.70;88.00;;;;;;5073441;28;20018;-61
2022/08/18 12:57:34;;;;;;;;;;;27.80;87.60;;;;;;5073138;28;19931;-61
2022/08/18 13:00:00;;;;;;;;;;;27.50;87.20;;;;;;5074192;28;19933;-61
2022/08/18 13:02:26;;;;;;;;;;;27.50;87.10;;;;;;5072457;28;20301;-61
2022/08/18 13:04:52;;;;;;;;;;;27.20;86.50;;;;;;5076319;28;19924;-69
2022/08/18 13:07:17;;;;;;;;;;;27.60;87.00;;;;;;5076996;28;19932;-61
2022/08/18 13:09:43;;;;;;;;;;;27.40;86.50;;;;;;5077916;28;20359;-61
2022/08/18 13:12:09;;;;;;;;;;;27.60;86.80;;;;;;5075690;28;19924;-61
2022/08/18 13:14:35;;;;;;;;;;;27.40;86.80;;;;;;5070767;28;19951;-64
2022/08/18 13:17:01;;;;;;;;;;;27.50;86.50;;;;;;5077132;28;19924;-66
2022/08/18 13:19:27;;;;;;;;;;;27.40;86.40;;;;;;5077535;28;20367;-67
2022/08/18 13:21:53;;;;;;;;;;;27.40;86.80;;;;;;5076486;28;20058;-75
2022/08/18 13:24:18;;;;;;;;;;;27.60;87.30;;;;;;5077432;28;19966;-64
2022/08/18 13:26:45;;;;;;;;;;;27.60;87.00;;;;;;5077520;28;20259;-62
2022/08/18 13:29:10;;;;;;;;;;;27.40;87.40;;;;;;5076224;28;20366;-61
2022/08/18 13:31:36;;;;;;;;;;;27.30;86.90;;;;;;5077173;28;19927;-61
2022/08/18 13:34:03;;;;;;;;;;;27.30;87.40;;;;;;5076306;28;19955;-62
2022/08/18 13:36:43;;;;;;;;;;;27.30;87.20;;;;;;5076883;28;20031;-61
2022/08/18 13:39:18;;;;;;;;;;;27.30;86.50;;;;;;5076595;28;19924;-64
2022/08/18 13:41:45;;;;;;;;;;;27.00;87.20;;;;;;5058980;28;19975;-62
2022/08/18 13:44:12;;;;;;;;;;;27.20;87.30;;;;;;5073102;28;19925;-66
2022/08/18 13:46:44;;;;;;;;;;;27.20;87.10;;;;;;5073500;28;19935;-61
2022/08/18 13:49:11;;;;;;;;;;;27.50;87.70;;;;;;5076628;28;20007;-61
2022/08/18 13:51:36;;;;;;;;;;;27.30;87.70;;;;;;5077110;28;19970;-68
2022/08/18 13:54:02;;;;;;;;;;;27.10;87.30;;;;;;5076842;28;19928;-61
2022/08/18 13:56:27;;;;;;;;;;;27.10;87.10;;;;;;5077143;28;19925;-61
2022/08/18 13:58:53;;;;;;;;;;;27.00;87.10;;;;;;5076919;28;20019;-61
2022/08/18 14:01:19;;;;;;;;;;;27.30;87.20;;;;;;5058587;28;20016;-61
2022/08/18 14:03:45;;;;;;;;;;;27.40;87.40;;;;;;5076597;28;20380;-61
2022/08/18 14:06:11;;;;;;;;;;;27.40;87.20;;;;;;5076726;28;19929;-61
2022/08/18 14:08:37;;;;;;;;;;;27.30;87.30;;;;;;5077337;28;19928;-61
2022/08/18 14:11:02;;;;;;;;;;;27.30;87.10;;;;;;5076172;28;20361;-61
2022/08/18 14:13:29;;;;;;;;;;;27.20;87.00;;;;;;5075750;28;19924;-62
2022/08/18 14:15:55;;;;;;;;;;;27.40;86.80;;;;;;5076701;28;20329;-61
2022/08/18 14:18:22;;;;;;;;;;;27.30;87.40;;;;;;5076184;28;19928;-61
2022/08/18 14:29:00;;;;;;;;;;;27.40;86.20;;;;;;5076264;28;19931;-62
2022/08/18 14:31:26;;;;;;;;;;;27.50;87.00;;;;;;5076396;28;20287;-70
2022/08/18 14:33:51;;;;;;;;;;;27.50;87.20;;;;;;5058012;28;19925;-62
2022/08/18 14:36:17;;;;;;;;;;;27.60;87.00;;;;;;5076329;28;19963;-61
2022/08/18 14:38:43;;;;;;;;;;;27.20;87.10;;;;;;5075766;28;20326;-64
2022/08/18 14:41:09;;;;;;;;;;;27.50;87.00;;;;;;5058297;28;20025;-61
2022/08/18 14:43:35;;;;;;;;;;;27.50;87.30;;;;;;5057823;28;19932;-66
2022/08/18 14:46:01;;;;;;;;;;;27.40;87.10;;;;;;5075855;28;19928;-60
2022/08/18 14:48:27;;;;;;;;;;;27.60;87.50;;;;;;5075654;28;20286;-61